Terminal Aerodrome Forecast
Issued by NWS

Home | Current Version | Previous Version | Graphics & Text | Print | Product List | Glossary On
Versions: 1 2 3 4 5 6 7 8 9 10 11 12 13 14 15 16 17 18 19
000
FTUS43 KGRB 280028 AAA
TAFRHI
TAF AMD
KRHI 280028Z 2800/2824 13009KT P6SM SHRA SCT019 OVC040
      TEMPO 2800/2804 3SM -SHRA BR BKN019
     FM280400 13004KT 4SM BR OVC003
     FM281500 17007KT 3SM SHRA OVC003
     FM281600 17008KT 5SM SHRA OVC010
     FM281700 17008KT P6SM SHRA OVC015
     FM281900 17008KT P6SM SHRA BKN040=

USA.gov is the U.S. government's official web portal to all federal, state and local government web resources and services.